Ottosen, Iowa
Current Conditions -  °F | °C
As of 12:35 PM on Wednesday 26 Nov 2014 (Local Time) from KAXA Reporting Station
Unknown Precip Unknown Precip  
Wind Chill: 15°   Ceiling: 2800
Heat Index: 27°   Visibility: 1.2mi
Dew Point: 25°   Wind: 15mph
Humidity: 93%   Direction: 10°N
Pressure: 30.09"   Gusts: 22mph
Location:  42.89°N, 94.38°W
Report Text: KAXA 261835Z AUTO 01013G19KT 1 1/4SM +UP OVC028 M03/M04 A3009 RMK AO2
Loading
Personal Weather Stations






























Interactive Weather Map New forecast layout! Learn more

10-Day Weather Forecast

Advertisements
Track Severe Weather on mobile